sensor_id;sensor_type;location;lat;lon;timestamp;P1;durP1;ratioP1;P2;durP2;ratioP2
51556;SDS011;38766;53.194;5.532;2023-06-14T00:01:35;4.63;;;2.80;;
51556;SDS011;38766;53.194;5.532;2023-06-14T00:04:01;6.68;;;2.58;;
51556;SDS011;38766;53.194;5.532;2023-06-14T00:06:28;5.18;;;2.25;;
51556;SDS011;38766;53.194;5.532;2023-06-14T00:08:54;7.35;;;2.35;;
51556;SDS011;38766;53.194;5.532;2023-06-14T00:11:20;4.20;;;2.38;;
51556;SDS011;38766;53.194;5.532;2023-06-14T00:13:45;4.47;;;2.35;;
51556;SDS011;38766;53.194;5.532;2023-06-14T00:16:11;7.65;;;2.95;;
51556;SDS011;38766;53.194;5.532;2023-06-14T00:18:37;5.07;;;2.33;;
51556;SDS011;38766;53.194;5.532;2023-06-14T00:21:03;5.28;;;2.53;;
51556;SDS011;38766;53.194;5.532;2023-06-14T00:23:30;3.35;;;2.20;;
51556;SDS011;38766;53.194;5.532;2023-06-14T00:25:55;8.20;;;2.60;;
51556;SDS011;38766;53.194;5.532;2023-06-14T00:28:21;6.68;;;3.20;;
51556;SDS011;38766;53.194;5.532;2023-06-14T00:30:47;4.75;;;2.17;;
51556;SDS011;38766;53.194;5.532;2023-06-14T00:33:13;5.20;;;2.20;;
51556;SDS011;38766;53.194;5.532;2023-06-14T00:35:39;7.00;;;2.47;;
51556;SDS011;38766;53.194;5.532;2023-06-14T00:38:05;7.32;;;2.40;;
51556;SDS011;38766;53.194;5.532;2023-06-14T00:40:30;4.97;;;2.40;;
51556;SDS011;38766;53.194;5.532;2023-06-14T00:42:56;3.33;;;2.40;;
51556;SDS011;38766;53.194;5.532;2023-06-14T00:45:21;4.35;;;2.50;;
51556;SDS011;38766;53.194;5.532;2023-06-14T00:47:47;4.43;;;2.50;;
51556;SDS011;38766;53.194;5.532;2023-06-14T00:50:16;6.53;;;2.30;;
51556;SDS011;38766;53.194;5.532;2023-06-14T00:52:42;4.72;;;2.42;;
51556;SDS011;38766;53.194;5.532;2023-06-14T00:55:08;4.38;;;2.80;;
51556;SDS011;38766;53.194;5.532;2023-06-14T00:57:34;3.33;;;2.30;;
51556;SDS011;38766;53.194;5.532;2023-06-14T01:00:02;5.03;;;2.60;;
51556;SDS011;38766;53.194;5.532;2023-06-14T01:02:36;5.93;;;2.15;;
51556;SDS011;38766;53.194;5.532;2023-06-14T01:05:02;4.47;;;2.22;;
51556;SDS011;38766;53.194;5.532;2023-06-14T01:07:33;4.25;;;2.17;;
51556;SDS011;38766;53.194;5.532;2023-06-14T01:15:32;4.60;;;2.33;;
51556;SDS011;38766;53.194;5.532;2023-06-14T01:18:01;2.75;;;2.20;;
51556;SDS011;38766;53.194;5.532;2023-06-14T01:20:28;6.45;;;2.35;;
51556;SDS011;38766;53.194;5.532;2023-06-14T01:22:56;11.73;;;2.53;;
51556;SDS011;38766;53.194;5.532;2023-06-14T01:25:22;6.20;;;3.00;;
51556;SDS011;38766;53.194;5.532;2023-06-14T01:27:48;4.82;;;2.45;;
51556;SDS011;38766;53.194;5.532;2023-06-14T01:30:18;6.80;;;2.30;;
51556;SDS011;38766;53.194;5.532;2023-06-14T01:32:46;3.13;;;2.15;;
51556;SDS011;38766;53.194;5.532;2023-06-14T01:35:13;4.88;;;2.42;;
51556;SDS011;38766;53.194;5.532;2023-06-14T01:37:39;4.05;;;2.30;;
51556;SDS011;38766;53.194;5.532;2023-06-14T01:40:06;9.38;;;2.20;;
51556;SDS011;38766;53.194;5.532;2023-06-14T01:42:35;5.85;;;2.35;;
51556;SDS011;38766;53.194;5.532;2023-06-14T01:45:04;5.30;;;2.30;;
51556;SDS011;38766;53.194;5.532;2023-06-14T01:47:31;4.47;;;2.20;;
51556;SDS011;38766;53.194;5.532;2023-06-14T01:49:57;2.63;;;2.00;;
51556;SDS011;38766;53.194;5.532;2023-06-14T01:52:23;4.65;;;2.50;;
51556;SDS011;38766;53.194;5.532;2023-06-14T01:54:49;4.03;;;2.30;;
51556;SDS011;38766;53.194;5.532;2023-06-14T01:57:16;3.03;;;2.15;;
51556;SDS011;38766;53.194;5.532;2023-06-14T01:59:41;4.75;;;2.20;;
51556;SDS011;38766;53.194;5.532;2023-06-14T02:02:13;3.03;;;2.10;;
51556;SDS011;38766;53.194;5.532;2023-06-14T02:04:40;6.20;;;2.40;;
51556;SDS011;38766;53.194;5.532;2023-06-14T02:07:06;8.23;;;2.60;;
51556;SDS011;38766;53.194;5.532;2023-06-14T02:09:31;4.82;;;2.30;;
51556;SDS011;38766;53.194;5.532;2023-06-14T02:11:57;3.50;;;2.30;;
51556;SDS011;38766;53.194;5.532;2023-06-14T02:14:23;5.22;;;2.38;;
51556;SDS011;38766;53.194;5.532;2023-06-14T02:16:49;2.58;;;2.00;;
51556;SDS011;38766;53.194;5.532;2023-06-14T02:19:18;4.55;;;2.20;;
51556;SDS011;38766;53.194;5.532;2023-06-14T02:21:46;2.65;;;2.03;;
51556;SDS011;38766;53.194;5.532;2023-06-14T02:24:12;3.15;;;1.80;;
51556;SDS011;38766;53.194;5.532;2023-06-14T02:26:38;4.43;;;2.10;;
51556;SDS011;38766;53.194;5.532;2023-06-14T02:29:04;3.08;;;1.80;;
51556;SDS011;38766;53.194;5.532;2023-06-14T02:31:31;4.07;;;1.95;;
51556;SDS011;38766;53.194;5.532;2023-06-14T02:33:57;4.63;;;2.10;;
51556;SDS011;38766;53.194;5.532;2023-06-14T02:36:23;3.38;;;2.13;;
51556;SDS011;38766;53.194;5.532;2023-06-14T02:38:49;3.72;;;1.98;;
51556;SDS011;38766;53.194;5.532;2023-06-14T02:41:15;4.30;;;2.30;;
51556;SDS011;38766;53.194;5.532;2023-06-14T02:43:41;3.97;;;2.25;;
51556;SDS011;38766;53.194;5.532;2023-06-14T02:46:06;3.85;;;2.35;;
51556;SDS011;38766;53.194;5.532;2023-06-14T02:48:32;2.10;;;1.90;;
51556;SDS011;38766;53.194;5.532;2023-06-14T02:50:58;3.92;;;2.08;;
51556;SDS011;38766;53.194;5.532;2023-06-14T02:53:24;5.35;;;2.08;;
51556;SDS011;38766;53.194;5.532;2023-06-14T02:55:49;3.00;;;2.20;;
51556;SDS011;38766;53.194;5.532;2023-06-14T02:58:15;5.90;;;2.40;;
51556;SDS011;38766;53.194;5.532;2023-06-14T03:00:41;4.18;;;2.28;;
51556;SDS011;38766;53.194;5.532;2023-06-14T03:03:07;3.83;;;2.60;;
51556;SDS011;38766;53.194;5.532;2023-06-14T03:05:41;6.45;;;2.17;;
51556;SDS011;38766;53.194;5.532;2023-06-14T03:08:14;2.97;;;2.10;;
51556;SDS011;38766;53.194;5.532;2023-06-14T03:10:47;3.97;;;2.40;;
51556;SDS011;38766;53.194;5.532;2023-06-14T03:13:13;2.38;;;2.08;;
51556;SDS011;38766;53.194;5.532;2023-06-14T03:15:39;6.53;;;2.20;;
51556;SDS011;38766;53.194;5.532;2023-06-14T03:18:10;5.43;;;2.20;;
51556;SDS011;38766;53.194;5.532;2023-06-14T03:20:37;4.38;;;2.28;;
51556;SDS011;38766;53.194;5.532;2023-06-14T03:23:03;4.65;;;2.20;;
51556;SDS011;38766;53.194;5.532;2023-06-14T03:25:30;5.25;;;2.47;;
51556;SDS011;38766;53.194;5.532;2023-06-14T03:27:56;8.45;;;2.50;;
51556;SDS011;38766;53.194;5.532;2023-06-14T03:30:22;5.22;;;2.50;;
51556;SDS011;38766;53.194;5.532;2023-06-14T03:32:47;7.43;;;2.58;;
51556;SDS011;38766;53.194;5.532;2023-06-14T03:35:13;5.30;;;2.50;;
51556;SDS011;38766;53.194;5.532;2023-06-14T03:37:46;2.83;;;2.13;;
51556;SDS011;38766;53.194;5.532;2023-06-14T03:40:12;3.03;;;2.55;;
51556;SDS011;38766;53.194;5.532;2023-06-14T03:42:39;5.00;;;2.30;;
51556;SDS011;38766;53.194;5.532;2023-06-14T03:45:05;6.60;;;2.25;;
51556;SDS011;38766;53.194;5.532;2023-06-14T03:47:32;5.22;;;2.47;;
51556;SDS011;38766;53.194;5.532;2023-06-14T03:49:58;6.00;;;2.38;;
51556;SDS011;38766;53.194;5.532;2023-06-14T03:52:25;4.63;;;2.35;;
51556;SDS011;38766;53.194;5.532;2023-06-14T03:54:51;3.78;;;2.50;;
51556;SDS011;38766;53.194;5.532;2023-06-14T03:57:17;4.90;;;3.20;;
51556;SDS011;38766;53.194;5.532;2023-06-14T03:59:42;3.65;;;2.60;;
51556;SDS011;38766;53.194;5.532;2023-06-14T04:02:08;2.95;;;2.30;;
51556;SDS011;38766;53.194;5.532;2023-06-14T04:04:40;3.15;;;2.42;;
51556;SDS011;38766;53.194;5.532;2023-06-14T04:07:09;3.58;;;2.28;;
51556;SDS011;38766;53.194;5.532;2023-06-14T04:09:36;6.13;;;2.65;;
51556;SDS011;38766;53.194;5.532;2023-06-14T04:12:03;4.43;;;2.45;;
51556;SDS011;38766;53.194;5.532;2023-06-14T04:14:29;10.85;;;3.05;;
51556;SDS011;38766;53.194;5.532;2023-06-14T04:16:55;4.55;;;2.72;;
51556;SDS011;38766;53.194;5.532;2023-06-14T04:19:21;4.15;;;2.58;;
51556;SDS011;38766;53.194;5.532;2023-06-14T04:21:47;4.63;;;2.40;;
51556;SDS011;38766;53.194;5.532;2023-06-14T04:24:13;7.00;;;3.33;;
51556;SDS011;38766;53.194;5.532;2023-06-14T04:26:42;5.75;;;3.05;;
51556;SDS011;38766;53.194;5.532;2023-06-14T04:29:12;7.20;;;2.70;;
51556;SDS011;38766;53.194;5.532;2023-06-14T04:31:45;5.60;;;2.92;;
51556;SDS011;38766;53.194;5.532;2023-06-14T04:34:14;6.05;;;2.67;;
51556;SDS011;38766;53.194;5.532;2023-06-14T04:36:42;5.57;;;3.10;;
51556;SDS011;38766;53.194;5.532;2023-06-14T04:39:17;4.63;;;2.70;;
51556;SDS011;38766;53.194;5.532;2023-06-14T04:41:43;5.78;;;2.88;;
51556;SDS011;38766;53.194;5.532;2023-06-14T04:44:09;5.35;;;3.38;;
51556;SDS011;38766;53.194;5.532;2023-06-14T04:46:35;6.32;;;3.10;;
51556;SDS011;38766;53.194;5.532;2023-06-14T04:49:17;4.55;;;2.75;;
51556;SDS011;38766;53.194;5.532;2023-06-14T04:51:43;5.97;;;2.83;;
51556;SDS011;38766;53.194;5.532;2023-06-14T04:54:11;3.22;;;2.63;;
51556;SDS011;38766;53.194;5.532;2023-06-14T04:56:40;6.00;;;3.00;;
51556;SDS011;38766;53.194;5.532;2023-06-14T04:59:10;3.83;;;2.83;;
51556;SDS011;38766;53.194;5.532;2023-06-14T05:01:40;4.78;;;2.92;;
51556;SDS011;38766;53.194;5.532;2023-06-14T05:04:06;8.10;;;2.63;;
51556;SDS011;38766;53.194;5.532;2023-06-14T05:06:31;4.18;;;2.92;;
51556;SDS011;38766;53.194;5.532;2023-06-14T05:08:57;4.88;;;3.15;;
51556;SDS011;38766;53.194;5.532;2023-06-14T05:11:23;3.67;;;2.83;;
51556;SDS011;38766;53.194;5.532;2023-06-14T05:13:49;6.45;;;2.85;;
51556;SDS011;38766;53.194;5.532;2023-06-14T05:16:15;5.72;;;3.00;;
51556;SDS011;38766;53.194;5.532;2023-06-14T05:18:41;4.88;;;2.90;;
51556;SDS011;38766;53.194;5.532;2023-06-14T05:21:08;3.58;;;2.70;;
51556;SDS011;38766;53.194;5.532;2023-06-14T05:23:33;6.13;;;3.13;;
51556;SDS011;38766;53.194;5.532;2023-06-14T05:26:02;5.75;;;2.70;;
51556;SDS011;38766;53.194;5.532;2023-06-14T05:28:29;5.75;;;3.50;;
51556;SDS011;38766;53.194;5.532;2023-06-14T05:30:55;5.47;;;2.70;;
51556;SDS011;38766;53.194;5.532;2023-06-14T05:33:22;5.43;;;3.05;;
51556;SDS011;38766;53.194;5.532;2023-06-14T05:35:47;6.07;;;3.20;;
51556;SDS011;38766;53.194;5.532;2023-06-14T05:38:13;5.65;;;3.10;;
51556;SDS011;38766;53.194;5.532;2023-06-14T05:40:38;6.50;;;2.65;;
51556;SDS011;38766;53.194;5.532;2023-06-14T05:43:04;5.05;;;3.00;;
51556;SDS011;38766;53.194;5.532;2023-06-14T05:45:30;6.22;;;3.33;;
51556;SDS011;38766;53.194;5.532;2023-06-14T05:47:55;6.22;;;3.22;;
51556;SDS011;38766;53.194;5.532;2023-06-14T05:50:21;7.10;;;3.20;;
51556;SDS011;38766;53.194;5.532;2023-06-14T05:52:46;8.70;;;3.03;;
51556;SDS011;38766;53.194;5.532;2023-06-14T05:55:12;6.25;;;2.95;;
51556;SDS011;38766;53.194;5.532;2023-06-14T05:57:38;4.45;;;3.13;;
51556;SDS011;38766;53.194;5.532;2023-06-14T06:00:04;5.75;;;2.90;;
51556;SDS011;38766;53.194;5.532;2023-06-14T06:02:35;17.73;;;3.88;;
51556;SDS011;38766;53.194;5.532;2023-06-14T06:05:01;4.55;;;3.30;;
51556;SDS011;38766;53.194;5.532;2023-06-14T06:07:27;4.72;;;3.55;;
51556;SDS011;38766;53.194;5.532;2023-06-14T06:09:53;5.72;;;3.28;;
51556;SDS011;38766;53.194;5.532;2023-06-14T06:12:18;7.53;;;3.30;;
51556;SDS011;38766;53.194;5.532;2023-06-14T06:14:44;4.45;;;3.10;;
51556;SDS011;38766;53.194;5.532;2023-06-14T06:17:10;4.07;;;3.10;;
51556;SDS011;38766;53.194;5.532;2023-06-14T06:19:35;7.80;;;3.28;;
51556;SDS011;38766;53.194;5.532;2023-06-14T06:22:01;6.13;;;3.42;;
51556;SDS011;38766;53.194;5.532;2023-06-14T06:24:27;7.45;;;3.35;;
51556;SDS011;38766;53.194;5.532;2023-06-14T06:26:52;4.57;;;3.35;;
51556;SDS011;38766;53.194;5.532;2023-06-14T06:29:19;8.00;;;3.33;;
51556;SDS011;38766;53.194;5.532;2023-06-14T06:31:44;5.10;;;3.13;;
51556;SDS011;38766;53.194;5.532;2023-06-14T06:34:10;4.25;;;3.08;;
51556;SDS011;38766;53.194;5.532;2023-06-14T06:36:36;4.75;;;3.20;;
51556;SDS011;38766;53.194;5.532;2023-06-14T06:39:02;7.10;;;3.33;;
51556;SDS011;38766;53.194;5.532;2023-06-14T06:41:34;7.68;;;3.05;;
51556;SDS011;38766;53.194;5.532;2023-06-14T06:44:02;5.20;;;3.30;;
51556;SDS011;38766;53.194;5.532;2023-06-14T06:46:28;8.27;;;3.20;;
51556;SDS011;38766;53.194;5.532;2023-06-14T06:48:53;9.68;;;3.63;;
51556;SDS011;38766;53.194;5.532;2023-06-14T06:51:19;5.60;;;2.90;;
51556;SDS011;38766;53.194;5.532;2023-06-14T06:53:51;5.10;;;3.40;;
51556;SDS011;38766;53.194;5.532;2023-06-14T06:56:18;5.50;;;3.08;;
51556;SDS011;38766;53.194;5.532;2023-06-14T06:58:44;5.63;;;3.22;;
51556;SDS011;38766;53.194;5.532;2023-06-14T07:01:10;4.13;;;2.70;;
51556;SDS011;38766;53.194;5.532;2023-06-14T07:03:36;7.45;;;3.30;;
51556;SDS011;38766;53.194;5.532;2023-06-14T07:06:02;5.63;;;2.90;;
51556;SDS011;38766;53.194;5.532;2023-06-14T07:08:28;5.30;;;2.60;;
51556;SDS011;38766;53.194;5.532;2023-06-14T07:10:54;8.43;;;3.42;;
51556;SDS011;38766;53.194;5.532;2023-06-14T07:13:20;6.60;;;3.13;;
51556;SDS011;38766;53.194;5.532;2023-06-14T07:15:46;4.22;;;2.78;;
51556;SDS011;38766;53.194;5.532;2023-06-14T07:18:12;3.60;;;2.42;;
51556;SDS011;38766;53.194;5.532;2023-06-14T07:20:37;6.25;;;2.92;;
51556;SDS011;38766;53.194;5.532;2023-06-14T07:23:03;4.22;;;2.33;;
51556;SDS011;38766;53.194;5.532;2023-06-14T07:25:30;3.63;;;2.60;;
51556;SDS011;38766;53.194;5.532;2023-06-14T07:27:56;3.13;;;2.70;;
51556;SDS011;38766;53.194;5.532;2023-06-14T07:30:22;4.65;;;2.65;;
51556;SDS011;38766;53.194;5.532;2023-06-14T07:32:51;5.50;;;2.78;;
51556;SDS011;38766;53.194;5.532;2023-06-14T07:35:17;4.75;;;2.75;;
51556;SDS011;38766;53.194;5.532;2023-06-14T07:37:43;4.25;;;2.60;;
51556;SDS011;38766;53.194;5.532;2023-06-14T07:40:10;6.63;;;2.42;;
51556;SDS011;38766;53.194;5.532;2023-06-14T07:42:36;2.50;;;2.30;;
51556;SDS011;38766;53.194;5.532;2023-06-14T07:45:02;4.55;;;2.70;;
51556;SDS011;38766;53.194;5.532;2023-06-14T07:47:29;3.92;;;2.40;;
51556;SDS011;38766;53.194;5.532;2023-06-14T07:49:55;6.72;;;2.33;;
51556;SDS011;38766;53.194;5.532;2023-06-14T07:52:20;4.20;;;2.10;;
51556;SDS011;38766;53.194;5.532;2023-06-14T07:54:46;2.45;;;2.10;;
51556;SDS011;38766;53.194;5.532;2023-06-14T07:57:12;2.30;;;2.10;;
51556;SDS011;38766;53.194;5.532;2023-06-14T07:59:38;5.18;;;2.92;;
51556;SDS011;38766;53.194;5.532;2023-06-14T08:02:04;4.28;;;2.38;;
51556;SDS011;38766;53.194;5.532;2023-06-14T08:04:30;5.13;;;2.58;;
51556;SDS011;38766;53.194;5.532;2023-06-14T08:06:56;4.65;;;2.30;;
51556;SDS011;38766;53.194;5.532;2023-06-14T08:09:22;4.50;;;2.30;;
51556;SDS011;38766;53.194;5.532;2023-06-14T08:11:49;5.18;;;2.13;;
51556;SDS011;38766;53.194;5.532;2023-06-14T08:14:15;3.92;;;2.10;;
51556;SDS011;38766;53.194;5.532;2023-06-14T08:16:40;2.50;;;1.70;;
51556;SDS011;38766;53.194;5.532;2023-06-14T08:19:06;3.05;;;2.08;;
51556;SDS011;38766;53.194;5.532;2023-06-14T08:21:32;4.60;;;2.10;;
51556;SDS011;38766;53.194;5.532;2023-06-14T08:23:58;6.25;;;2.20;;
51556;SDS011;38766;53.194;5.532;2023-06-14T08:26:25;3.53;;;2.00;;
51556;SDS011;38766;53.194;5.532;2023-06-14T08:28:54;3.42;;;2.00;;
51556;SDS011;38766;53.194;5.532;2023-06-14T08:31:20;2.75;;;2.30;;
51556;SDS011;38766;53.194;5.532;2023-06-14T08:33:46;3.30;;;2.40;;
51556;SDS011;38766;53.194;5.532;2023-06-14T08:36:12;5.07;;;2.30;;
51556;SDS011;38766;53.194;5.532;2023-06-14T08:38:38;4.15;;;1.88;;
51556;SDS011;38766;53.194;5.532;2023-06-14T08:41:04;2.28;;;1.90;;
51556;SDS011;38766;53.194;5.532;2023-06-14T08:43:37;3.65;;;2.20;;
51556;SDS011;38766;53.194;5.532;2023-06-14T08:46:03;5.38;;;2.45;;
51556;SDS011;38766;53.194;5.532;2023-06-14T08:48:31;3.38;;;1.90;;
51556;SDS011;38766;53.194;5.532;2023-06-14T08:51:01;3.35;;;2.35;;
51556;SDS011;38766;53.194;5.532;2023-06-14T08:53:30;3.53;;;2.10;;
51556;SDS011;38766;53.194;5.532;2023-06-14T08:55:57;3.80;;;2.05;;
51556;SDS011;38766;53.194;5.532;2023-06-14T08:58:26;2.85;;;2.38;;
51556;SDS011;38766;53.194;5.532;2023-06-14T09:00:54;2.85;;;2.20;;
51556;SDS011;38766;53.194;5.532;2023-06-14T09:03:21;4.43;;;2.97;;
51556;SDS011;38766;53.194;5.532;2023-06-14T09:05:48;4.47;;;2.03;;
51556;SDS011;38766;53.194;5.532;2023-06-14T09:08:15;4.03;;;2.10;;
51556;SDS011;38766;53.194;5.532;2023-06-14T09:10:41;3.30;;;2.60;;
51556;SDS011;38766;53.194;5.532;2023-06-14T09:13:06;3.50;;;2.45;;
51556;SDS011;38766;53.194;5.532;2023-06-14T09:15:32;4.00;;;2.08;;
51556;SDS011;38766;53.194;5.532;2023-06-14T09:18:00;3.28;;;2.05;;
51556;SDS011;38766;53.194;5.532;2023-06-14T09:20:28;4.38;;;2.30;;
51556;SDS011;38766;53.194;5.532;2023-06-14T09:22:55;5.00;;;2.63;;
51556;SDS011;38766;53.194;5.532;2023-06-14T09:25:21;3.85;;;2.17;;
51556;SDS011;38766;53.194;5.532;2023-06-14T09:27:47;4.22;;;2.30;;
51556;SDS011;38766;53.194;5.532;2023-06-14T09:30:13;4.03;;;2.35;;
51556;SDS011;38766;53.194;5.532;2023-06-14T09:32:39;4.28;;;2.50;;
51556;SDS011;38766;53.194;5.532;2023-06-14T09:35:06;7.72;;;2.63;;
51556;SDS011;38766;53.194;5.532;2023-06-14T09:37:32;2.53;;;2.28;;
51556;SDS011;38766;53.194;5.532;2023-06-14T09:39:59;4.68;;;2.47;;
51556;SDS011;38766;53.194;5.532;2023-06-14T09:42:25;5.03;;;2.50;;
51556;SDS011;38766;53.194;5.532;2023-06-14T09:44:53;6.60;;;2.30;;
51556;SDS011;38766;53.194;5.532;2023-06-14T09:47:21;7.10;;;2.38;;
51556;SDS011;38766;53.194;5.532;2023-06-14T09:49:51;3.47;;;2.30;;
51556;SDS011;38766;53.194;5.532;2023-06-14T09:52:19;4.50;;;3.03;;
51556;SDS011;38766;53.194;5.532;2023-06-14T09:54:47;3.83;;;2.50;;
51556;SDS011;38766;53.194;5.532;2023-06-14T09:57:17;5.75;;;2.50;;
51556;SDS011;38766;53.194;5.532;2023-06-14T09:59:47;2.83;;;2.40;;
51556;SDS011;38766;53.194;5.532;2023-06-14T10:02:24;5.30;;;2.80;;
51556;SDS011;38766;53.194;5.532;2023-06-14T10:04:58;5.63;;;2.40;;
51556;SDS011;38766;53.194;5.532;2023-06-14T10:07:37;3.75;;;2.75;;
51556;SDS011;38766;53.194;5.532;2023-06-14T10:10:06;4.47;;;2.40;;
51556;SDS011;38766;53.194;5.532;2023-06-14T10:12:33;5.18;;;2.22;;
51556;SDS011;38766;53.194;5.532;2023-06-14T10:14:58;3.85;;;2.30;;
51556;SDS011;38766;53.194;5.532;2023-06-14T10:17:27;3.60;;;2.20;;
51556;SDS011;38766;53.194;5.532;2023-06-14T10:20:11;2.40;;;2.20;;
51556;SDS011;38766;53.194;5.532;2023-06-14T10:22:46;4.82;;;2.40;;
51556;SDS011;38766;53.194;5.532;2023-06-14T10:25:28;3.63;;;2.10;;
51556;SDS011;38766;53.194;5.532;2023-06-14T10:31:01;3.38;;;1.92;;
51556;SDS011;38766;53.194;5.532;2023-06-14T10:33:56;3.45;;;2.20;;
51556;SDS011;38766;53.194;5.532;2023-06-14T10:41:50;5.30;;;2.13;;
51556;SDS011;38766;53.194;5.532;2023-06-14T10:46:46;2.85;;;2.20;;
51556;SDS011;38766;53.194;5.532;2023-06-14T10:49:16;5.93;;;2.40;;
51556;SDS011;38766;53.194;5.532;2023-06-14T10:51:45;4.93;;;2.13;;
51556;SDS011;38766;53.194;5.532;2023-06-14T10:54:16;2.38;;;1.88;;
51556;SDS011;38766;53.194;5.532;2023-06-14T10:56:49;2.65;;;2.17;;
51556;SDS011;38766;53.194;5.532;2023-06-14T10:59:16;2.00;;;1.80;;
51556;SDS011;38766;53.194;5.532;2023-06-14T11:04:11;7.95;;;1.92;;
51556;SDS011;38766;53.194;5.532;2023-06-14T11:06:50;3.55;;;1.90;;
51556;SDS011;38766;53.194;5.532;2023-06-14T11:12:03;4.85;;;2.03;;
51556;SDS011;38766;53.194;5.532;2023-06-14T11:14:30;3.13;;;2.13;;
51556;SDS011;38766;53.194;5.532;2023-06-14T11:16:56;2.00;;;1.80;;
51556;SDS011;38766;53.194;5.532;2023-06-14T11:19:21;3.15;;;2.10;;
51556;SDS011;38766;53.194;5.532;2023-06-14T11:21:48;4.90;;;2.30;;
51556;SDS011;38766;53.194;5.532;2023-06-14T11:24:13;4.88;;;2.38;;
51556;SDS011;38766;53.194;5.532;2023-06-14T11:26:40;5.80;;;2.50;;
51556;SDS011;38766;53.194;5.532;2023-06-14T11:29:06;6.53;;;2.63;;
51556;SDS011;38766;53.194;5.532;2023-06-14T11:31:31;2.70;;;2.13;;
51556;SDS011;38766;53.194;5.532;2023-06-14T11:33:57;2.40;;;2.20;;
51556;SDS011;38766;53.194;5.532;2023-06-14T11:36:30;3.42;;;2.25;;
51556;SDS011;38766;53.194;5.532;2023-06-14T11:39:03;5.22;;;2.40;;
51556;SDS011;38766;53.194;5.532;2023-06-14T11:41:37;2.80;;;2.25;;
51556;SDS011;38766;53.194;5.532;2023-06-14T11:44:03;4.55;;;2.45;;
51556;SDS011;38766;53.194;5.532;2023-06-14T11:46:30;6.45;;;2.35;;
51556;SDS011;38766;53.194;5.532;2023-06-14T11:48:56;3.92;;;2.58;;
51556;SDS011;38766;53.194;5.532;2023-06-14T11:51:22;7.40;;;2.35;;
51556;SDS011;38766;53.194;5.532;2023-06-14T11:53:47;3.40;;;1.90;;
51556;SDS011;38766;53.194;5.532;2023-06-14T11:56:13;2.72;;;2.10;;
51556;SDS011;38766;53.194;5.532;2023-06-14T11:58:39;4.25;;;2.28;;
51556;SDS011;38766;53.194;5.532;2023-06-14T12:01:05;4.30;;;2.50;;
51556;SDS011;38766;53.194;5.532;2023-06-14T12:03:30;6.45;;;2.22;;
51556;SDS011;38766;53.194;5.532;2023-06-14T12:06:05;3.47;;;2.22;;
51556;SDS011;38766;53.194;5.532;2023-06-14T12:08:37;6.93;;;2.38;;
51556;SDS011;38766;53.194;5.532;2023-06-14T12:11:06;5.75;;;2.30;;
51556;SDS011;38766;53.194;5.532;2023-06-14T12:13:39;4.80;;;2.28;;
51556;SDS011;38766;53.194;5.532;2023-06-14T12:16:09;4.70;;;2.20;;
51556;SDS011;38766;53.194;5.532;2023-06-14T12:18:36;5.75;;;2.45;;
51556;SDS011;38766;53.194;5.532;2023-06-14T12:21:07;2.15;;;1.92;;
51556;SDS011;38766;53.194;5.532;2023-06-14T12:26:12;4.78;;;2.20;;
51556;SDS011;38766;53.194;5.532;2023-06-14T12:28:42;5.78;;;2.45;;
51556;SDS011;38766;53.194;5.532;2023-06-14T12:31:10;3.75;;;2.08;;
51556;SDS011;38766;53.194;5.532;2023-06-14T12:33:37;3.90;;;2.40;;
51556;SDS011;38766;53.194;5.532;2023-06-14T12:36:04;5.95;;;2.22;;
51556;SDS011;38766;53.194;5.532;2023-06-14T12:38:31;7.03;;;2.47;;
51556;SDS011;38766;53.194;5.532;2023-06-14T12:40:57;4.07;;;2.40;;
51556;SDS011;38766;53.194;5.532;2023-06-14T12:43:23;4.38;;;2.30;;
51556;SDS011;38766;53.194;5.532;2023-06-14T12:45:49;7.00;;;3.67;;
51556;SDS011;38766;53.194;5.532;2023-06-14T12:48:14;2.55;;;2.28;;
51556;SDS011;38766;53.194;5.532;2023-06-14T12:50:40;4.63;;;2.38;;
51556;SDS011;38766;53.194;5.532;2023-06-14T12:53:06;3.20;;;2.35;;
51556;SDS011;38766;53.194;5.532;2023-06-14T12:55:32;2.72;;;2.10;;
51556;SDS011;38766;53.194;5.532;2023-06-14T12:57:58;7.22;;;2.50;;
51556;SDS011;38766;53.194;5.532;2023-06-14T13:00:24;4.57;;;2.10;;
51556;SDS011;38766;53.194;5.532;2023-06-14T13:02:51;6.85;;;2.33;;
51556;SDS011;38766;53.194;5.532;2023-06-14T13:05:17;6.20;;;2.50;;
51556;SDS011;38766;53.194;5.532;2023-06-14T13:07:43;2.88;;;2.25;;
51556;SDS011;38766;53.194;5.532;2023-06-14T13:10:09;6.03;;;2.17;;
51556;SDS011;38766;53.194;5.532;2023-06-14T13:12:35;4.25;;;2.50;;
51556;SDS011;38766;53.194;5.532;2023-06-14T13:15:01;3.28;;;2.63;;
51556;SDS011;38766;53.194;5.532;2023-06-14T13:17:27;5.10;;;2.90;;
51556;SDS011;38766;53.194;5.532;2023-06-14T13:19:53;4.72;;;2.92;;
51556;SDS011;38766;53.194;5.532;2023-06-14T13:22:19;4.65;;;3.10;;
51556;SDS011;38766;53.194;5.532;2023-06-14T13:24:44;4.05;;;2.90;;
51556;SDS011;38766;53.194;5.532;2023-06-14T13:27:10;6.15;;;2.95;;
51556;SDS011;38766;53.194;5.532;2023-06-14T13:29:36;6.70;;;3.40;;
51556;SDS011;38766;53.194;5.532;2023-06-14T13:32:02;10.27;;;3.85;;
51556;SDS011;38766;53.194;5.532;2023-06-14T13:34:28;5.10;;;3.28;;
51556;SDS011;38766;53.194;5.532;2023-06-14T13:36:56;6.07;;;2.92;;
51556;SDS011;38766;53.194;5.532;2023-06-14T13:39:21;10.43;;;3.15;;
51556;SDS011;38766;53.194;5.532;2023-06-14T13:41:47;4.65;;;2.85;;
51556;SDS011;38766;53.194;5.532;2023-06-14T13:44:13;6.55;;;2.88;;
51556;SDS011;38766;53.194;5.532;2023-06-14T13:46:40;29.80;;;3.70;;
51556;SDS011;38766;53.194;5.532;2023-06-14T13:49:07;7.13;;;2.80;;
51556;SDS011;38766;53.194;5.532;2023-06-14T13:51:33;8.40;;;2.80;;
51556;SDS011;38766;53.194;5.532;2023-06-14T13:54:00;7.97;;;3.25;;
51556;SDS011;38766;53.194;5.532;2023-06-14T13:56:26;3.28;;;2.70;;
51556;SDS011;38766;53.194;5.532;2023-06-14T13:58:51;6.55;;;2.95;;
51556;SDS011;38766;53.194;5.532;2023-06-14T14:01:17;7.18;;;2.83;;
51556;SDS011;38766;53.194;5.532;2023-06-14T14:03:44;13.98;;;2.83;;
51556;SDS011;38766;53.194;5.532;2023-06-14T14:06:11;5.38;;;2.75;;
51556;SDS011;38766;53.194;5.532;2023-06-14T14:08:37;5.05;;;3.00;;
51556;SDS011;38766;53.194;5.532;2023-06-14T14:11:03;7.85;;;3.58;;
51556;SDS011;38766;53.194;5.532;2023-06-14T14:13:28;6.28;;;2.90;;
51556;SDS011;38766;53.194;5.532;2023-06-14T14:15:54;5.13;;;2.67;;
51556;SDS011;38766;53.194;5.532;2023-06-14T14:18:20;5.80;;;2.85;;
51556;SDS011;38766;53.194;5.532;2023-06-14T14:20:46;5.60;;;2.72;;
51556;SDS011;38766;53.194;5.532;2023-06-14T14:23:12;6.68;;;2.53;;
51556;SDS011;38766;53.194;5.532;2023-06-14T14:25:37;5.10;;;2.63;;
51556;SDS011;38766;53.194;5.532;2023-06-14T14:28:03;4.18;;;2.60;;
51556;SDS011;38766;53.194;5.532;2023-06-14T14:30:29;5.35;;;2.70;;
51556;SDS011;38766;53.194;5.532;2023-06-14T14:32:54;5.55;;;3.00;;
51556;SDS011;38766;53.194;5.532;2023-06-14T14:35:20;6.38;;;2.83;;
51556;SDS011;38766;53.194;5.532;2023-06-14T14:37:47;7.13;;;2.80;;
51556;SDS011;38766;53.194;5.532;2023-06-14T14:40:13;6.65;;;2.92;;
51556;SDS011;38766;53.194;5.532;2023-06-14T14:42:38;9.20;;;3.38;;
51556;SDS011;38766;53.194;5.532;2023-06-14T14:45:04;5.32;;;2.90;;
51556;SDS011;38766;53.194;5.532;2023-06-14T14:47:30;6.68;;;2.67;;
51556;SDS011;38766;53.194;5.532;2023-06-14T14:49:56;4.90;;;2.75;;
51556;SDS011;38766;53.194;5.532;2023-06-14T14:52:29;9.02;;;3.00;;
51556;SDS011;38766;53.194;5.532;2023-06-14T14:54:54;6.88;;;2.70;;
51556;SDS011;38766;53.194;5.532;2023-06-14T14:57:20;5.80;;;2.88;;
51556;SDS011;38766;53.194;5.532;2023-06-14T14:59:46;6.00;;;2.63;;
51556;SDS011;38766;53.194;5.532;2023-06-14T15:02:12;4.35;;;2.72;;
51556;SDS011;38766;53.194;5.532;2023-06-14T15:04:37;4.05;;;2.33;;
51556;SDS011;38766;53.194;5.532;2023-06-14T15:07:03;5.32;;;2.90;;
51556;SDS011;38766;53.194;5.532;2023-06-14T15:09:29;7.72;;;2.97;;
51556;SDS011;38766;53.194;5.532;2023-06-14T15:11:54;10.68;;;2.95;;